Time;durP1;ratioP1;P1;durP2;ratioP2;P2;SDS_P1;SDS_P2;PMS_P1;PMS_P2;Temp;Humidity;BMP_temperature;BMP_pressure;BME280_temperature;BME280_humidity;BME280_pressure;Samples;Min_cycle;Max_cycle;Signal;HPM_P1;HPM_P2
2023/09/26 00:01:47;;;;;;;7.18;0.98;;;;;;;;;;5102890;28;20047;-74
2023/09/26 00:04:18;;;;;;;10.25;1.42;;;;;;;;;;5102362;28;20043;-74
2023/09/26 00:06:49;;;;;;;2.90;0.90;;;;;;;;;;5102615;28;20047;-73
2023/09/26 00:09:20;;;;;;;5.43;1.13;;;;;;;;;;5102664;28;20043;-74
2023/09/26 00:11:52;;;;;;;2.58;1.13;;;;;;;;;;5102647;28;20047;-74
2023/09/26 00:14:23;;;;;;;4.43;0.77;;;;;;;;;;5101931;28;20052;-76
2023/09/26 00:16:53;;;;;;;6.43;1.02;;;;;;;;;;5102372;28;20048;-75
2023/09/26 00:19:23;;;;;;;4.68;0.95;;;;;;;;;;5099581;28;20043;-76
2023/09/26 00:21:54;;;;;;;7.15;0.82;;;;;;;;;;5101222;28;20457;-74
2023/09/26 00:24:24;;;;;;;3.20;0.77;;;;;;;;;;5100317;28;20047;-75
2023/09/26 00:26:55;;;;;;;6.63;0.98;;;;;;;;;;5100508;28;20506;-74
2023/09/26 00:29:26;;;;;;;4.22;0.93;;;;;;;;;;5102624;28;20043;-74
2023/09/26 00:31:56;;;;;;;4.18;1.00;;;;;;;;;;5085054;28;20043;-74
2023/09/26 00:34:28;;;;;;;4.97;0.98;;;;;;;;;;5102286;28;20056;-74
2023/09/26 00:36:58;;;;;;;3.45;0.88;;;;;;;;;;5082670;28;20043;-75
2023/09/26 00:39:30;;;;;;;4.05;0.82;;;;;;;;;;5102617;28;20044;-74
2023/09/26 00:42:01;;;;;;;5.57;0.95;;;;;;;;;;5101615;28;20058;-76
2023/09/26 00:44:31;;;;;;;5.30;1.48;;;;;;;;;;5102832;28;20050;-74
2023/09/26 00:47:02;;;;;;;5.55;1.05;;;;;;;;;;5101871;28;20048;-74
2023/09/26 00:49:33;;;;;;;8.10;1.20;;;;;;;;;;5102585;28;20050;-74
2023/09/26 00:52:04;;;;;;;5.25;0.82;;;;;;;;;;5084300;28;20055;-74
2023/09/26 00:54:36;;;;;;;8.73;1.10;;;;;;;;;;5101658;28;20055;-74
2023/09/26 00:57:07;;;;;;;6.00;1.13;;;;;;;;;;5102628;28;20454;-74
2023/09/26 00:59:39;;;;;;;7.95;1.23;;;;;;;;;;5102067;28;20044;-74
2023/09/26 01:02:10;;;;;;;2.67;0.70;;;;;;;;;;5084593;28;20043;-74
2023/09/26 01:04:41;;;;;;;5.10;1.02;;;;;;;;;;5102258;28;20040;-75
2023/09/26 01:07:13;;;;;;;5.40;1.08;;;;;;;;;;5101733;28;20047;-74
2023/09/26 01:09:43;;;;;;;12.32;1.25;;;;;;;;;;5104450;28;20414;-74
2023/09/26 01:12:13;;;;;;;6.07;1.02;;;;;;;;;;5121793;27;20079;-75
2023/09/26 01:14:44;;;;;;;5.03;1.13;;;;;;;;;;5087009;28;20549;-74
2023/09/26 01:17:14;;;;;;;2.60;0.85;;;;;;;;;;5086803;28;20051;-73
2023/09/26 01:19:47;;;;;;;5.85;1.00;;;;;;;;;;5103358;28;20565;-74
2023/09/26 01:22:19;;;;;;;4.85;1.05;;;;;;;;;;5100921;28;20051;-73
2023/09/26 01:24:49;;;;;;;2.75;0.98;;;;;;;;;;5103798;28;20518;-75
2023/09/26 01:27:20;;;;;;;4.57;0.90;;;;;;;;;;5105858;28;20047;-74
2023/09/26 01:29:52;;;;;;;4.22;0.90;;;;;;;;;;5086001;28;20047;-74
2023/09/26 01:32:23;;;;;;;3.70;0.90;;;;;;;;;;5105624;28;20039;-74
2023/09/26 01:34:53;;;;;;;2.70;0.80;;;;;;;;;;5121220;27;20438;-75
2023/09/26 01:37:24;;;;;;;3.42;0.93;;;;;;;;;;5105707;28;20053;-74
2023/09/26 01:39:55;;;;;;;4.57;0.65;;;;;;;;;;5105291;28;20066;-74
2023/09/26 01:42:25;;;;;;;1.35;0.52;;;;;;;;;;5105079;28;20052;-74
2023/09/26 01:44:55;;;;;;;3.42;0.65;;;;;;;;;;5086763;28;20047;-74
2023/09/26 01:47:48;;;;;;;6.25;0.90;;;;;;;;;;5121336;27;20047;-73
2023/09/26 01:50:21;;;;;;;2.58;0.70;;;;;;;;;;5106214;28;20402;-73
2023/09/26 01:52:52;;;;;;;3.20;1.02;;;;;;;;;;5120781;27;20443;-73
2023/09/26 01:55:23;;;;;;;4.55;0.95;;;;;;;;;;5105547;28;20044;-74
2023/09/26 01:57:53;;;;;;;4.05;0.60;;;;;;;;;;5086059;28;20051;-74
2023/09/26 02:00:24;;;;;;;5.30;0.90;;;;;;;;;;5086792;28;20043;-74
2023/09/26 02:02:54;;;;;;;3.33;1.00;;;;;;;;;;5085679;28;20056;-73
2023/09/26 02:05:25;;;;;;;7.53;1.15;;;;;;;;;;5104743;28;20036;-74
2023/09/26 02:07:55;;;;;;;4.68;0.75;;;;;;;;;;5086263;28;20058;-76
2023/09/26 02:10:25;;;;;;;4.35;1.02;;;;;;;;;;5104538;28;20052;-74
2023/09/26 02:12:55;;;;;;;1.92;0.90;;;;;;;;;;5105379;28;20419;-75
2023/09/26 02:15:27;;;;;;;2.78;0.70;;;;;;;;;;5105434;28;20055;-73
2023/09/26 02:17:58;;;;;;;4.80;0.60;;;;;;;;;;5085898;28;20044;-74
2023/09/26 02:20:28;;;;;;;6.00;0.82;;;;;;;;;;5086677;28;20047;-73
2023/09/26 02:23:00;;;;;;;2.70;0.60;;;;;;;;;;5086427;28;20056;-74
2023/09/26 02:25:31;;;;;;;3.15;0.80;;;;;;;;;;5105164;28;20044;-74
2023/09/26 02:28:01;;;;;;;2.38;0.50;;;;;;;;;;5105273;28;20497;-74
2023/09/26 02:30:32;;;;;;;7.30;0.80;;;;;;;;;;5104352;28;20393;-74
2023/09/26 02:33:01;;;;;;;3.55;0.90;;;;;;;;;;5104560;28;20039;-74
2023/09/26 02:35:32;;;;;;;2.60;0.90;;;;;;;;;;5104524;28;20055;-74
2023/09/26 02:38:03;;;;;;;6.95;0.70;;;;;;;;;;5085415;28;20059;-74
2023/09/26 02:40:35;;;;;;;4.05;0.70;;;;;;;;;;5085450;28;20054;-74
2023/09/26 02:43:07;;;;;;;4.93;0.77;;;;;;;;;;5103931;28;20044;-74
2023/09/26 02:45:37;;;;;;;1.40;0.60;;;;;;;;;;5084611;28;20062;-74
2023/09/26 02:48:08;;;;;;;2.22;0.75;;;;;;;;;;5104321;28;20589;-75
2023/09/26 02:50:38;;;;;;;2.40;0.50;;;;;;;;;;5119070;27;20051;-74
2023/09/26 02:53:09;;;;;;;5.88;0.77;;;;;;;;;;5104551;28;20063;-73
2023/09/26 02:55:43;;;;;;;3.42;1.00;;;;;;;;;;5104360;28;20043;-74
2023/09/26 02:58:15;;;;;;;2.28;0.82;;;;;;;;;;5104684;28;20043;-74
2023/09/26 03:00:49;;;;;;;1.48;0.30;;;;;;;;;;5085482;28;20051;-74
2023/09/26 03:03:19;;;;;;;1.77;0.75;;;;;;;;;;5103724;28;20051;-74
2023/09/26 03:05:56;;;;;;;2.55;0.70;;;;;;;;;;5103672;28;20425;-74
2023/09/26 03:08:27;;;;;;;1.20;0.50;;;;;;;;;;5104122;28;20051;-73
2023/09/26 03:10:59;;;;;;;3.53;0.80;;;;;;;;;;5104137;28;20040;-74
2023/09/26 03:13:33;;;;;;;2.03;0.60;;;;;;;;;;5104766;28;20382;-74
2023/09/26 03:16:04;;;;;;;1.90;0.50;;;;;;;;;;5118942;27;20052;-75
2023/09/26 03:18:36;;;;;;;2.20;0.40;;;;;;;;;;5103860;28;20051;-74
2023/09/26 03:21:07;;;;;;;2.38;0.80;;;;;;;;;;5104341;28;20051;-74
2023/09/26 03:23:37;;;;;;;2.95;0.50;;;;;;;;;;5083627;28;20055;-74
2023/09/26 03:26:12;;;;;;;3.00;0.57;;;;;;;;;;5103661;28;20047;-74
2023/09/26 03:28:44;;;;;;;2.47;0.73;;;;;;;;;;5117853;27;20047;-74
2023/09/26 03:31:14;;;;;;;2.28;0.40;;;;;;;;;;5103960;28;20821;-74
2023/09/26 03:33:45;;;;;;;1.70;0.55;;;;;;;;;;5102443;28;20047;-74
2023/09/26 03:36:15;;;;;;;1.77;0.60;;;;;;;;;;5084872;28;20512;-74
2023/09/26 03:38:45;;;;;;;3.20;0.75;;;;;;;;;;5103550;28;20035;-75
2023/09/26 03:41:16;;;;;;;3.08;0.60;;;;;;;;;;5085256;28;20047;-74
2023/09/26 03:43:46;;;;;;;2.70;0.60;;;;;;;;;;5103729;28;20055;-75
2023/09/26 03:46:17;;;;;;;3.75;0.70;;;;;;;;;;5084581;28;20039;-74
2023/09/26 03:48:50;;;;;;;5.03;0.73;;;;;;;;;;5103895;28;20058;-74
2023/09/26 03:51:20;;;;;;;1.50;0.40;;;;;;;;;;5103129;28;20054;-74
2023/09/26 03:53:50;;;;;;;2.13;0.55;;;;;;;;;;5103218;28;20055;-73
2023/09/26 03:56:21;;;;;;;3.22;0.52;;;;;;;;;;5102898;28;20388;-74
2023/09/26 03:58:53;;;;;;;5.85;0.50;;;;;;;;;;5102628;28;20058;-75
2023/09/26 04:01:25;;;;;;;2.17;0.60;;;;;;;;;;5103450;28;20051;-74
2023/09/26 04:03:55;;;;;;;1.70;0.50;;;;;;;;;;5103016;28;20064;-74
2023/09/26 04:06:25;;;;;;;3.20;0.35;;;;;;;;;;5102705;28;20051;-74
2023/09/26 04:08:55;;;;;;;1.80;0.63;;;;;;;;;;5083562;28;20048;-74
2023/09/26 04:11:26;;;;;;;2.40;0.70;;;;;;;;;;5102832;28;20498;-74
2023/09/26 04:13:59;;;;;;;4.70;0.50;;;;;;;;;;5102851;28;20047;-74
2023/09/26 04:16:30;;;;;;;2.38;0.55;;;;;;;;;;5102421;28;20062;-74
2023/09/26 04:19:00;;;;;;;4.13;0.50;;;;;;;;;;5103492;28;20047;-75
2023/09/26 04:21:32;;;;;;;0.95;0.40;;;;;;;;;;5102861;28;20055;-76
2023/09/26 04:24:04;;;;;;;0.80;0.40;;;;;;;;;;5101922;28;20516;-73
2023/09/26 04:26:34;;;;;;;2.60;0.32;;;;;;;;;;5102423;28;20051;-74
2023/09/26 04:29:05;;;;;;;4.50;1.25;;;;;;;;;;5101883;28;20054;-74
2023/09/26 04:31:36;;;;;;;2.97;0.40;;;;;;;;;;5102038;28;20043;-73
2023/09/26 04:34:07;;;;;;;1.35;0.52;;;;;;;;;;5102576;28;20048;-74
2023/09/26 04:36:37;;;;;;;1.65;0.55;;;;;;;;;;5102352;28;20036;-75
2023/09/26 04:39:08;;;;;;;0.98;0.32;;;;;;;;;;5102014;28;20411;-74
2023/09/26 04:41:39;;;;;;;2.17;0.47;;;;;;;;;;5102372;28;20414;-74
2023/09/26 04:44:09;;;;;;;2.00;0.57;;;;;;;;;;5101887;28;20406;-74
2023/09/26 04:46:39;;;;;;;1.48;0.20;;;;;;;;;;5102687;28;20383;-73
2023/09/26 04:49:10;;;;;;;3.03;0.70;;;;;;;;;;5103014;28;20048;-74
2023/09/26 04:51:41;;;;;;;2.80;0.40;;;;;;;;;;5102873;28;20636;-73
2023/09/26 04:54:11;;;;;;;1.67;0.38;;;;;;;;;;5101801;28;20051;-74
2023/09/26 04:56:41;;;;;;;1.17;0.50;;;;;;;;;;5102317;28;20051;-74
2023/09/26 04:59:11;;;;;;;1.90;0.55;;;;;;;;;;5101999;28;20043;-74
2023/09/26 05:01:45;;;;;;;3.10;0.73;;;;;;;;;;5102191;28;20051;-74
2023/09/26 05:04:17;;;;;;;2.30;0.50;;;;;;;;;;5101661;28;20043;-74
2023/09/26 05:06:48;;;;;;;2.70;0.32;;;;;;;;;;5101851;28;20039;-74
2023/09/26 05:09:18;;;;;;;3.33;0.43;;;;;;;;;;5102631;28;20585;-74
2023/09/26 05:11:48;;;;;;;2.58;0.50;;;;;;;;;;5101999;28;20047;-74
2023/09/26 05:14:18;;;;;;;3.72;0.95;;;;;;;;;;5101558;28;20063;-74
2023/09/26 05:16:49;;;;;;;0.57;0.40;;;;;;;;;;5102827;28;20051;-74
2023/09/26 05:19:20;;;;;;;1.15;0.40;;;;;;;;;;5102623;28;20387;-74
2023/09/26 05:21:50;;;;;;;0.40;0.30;;;;;;;;;;5102031;28;20078;-75
2023/09/26 05:24:22;;;;;;;1.90;0.50;;;;;;;;;;5102049;28;20593;-74
2023/09/26 05:26:52;;;;;;;1.83;0.30;;;;;;;;;;5101957;28;20055;-74
2023/09/26 05:29:22;;;;;;;1.65;0.57;;;;;;;;;;5101766;28;20069;-73
2023/09/26 05:31:52;;;;;;;1.88;0.57;;;;;;;;;;5101695;28;20051;-74
2023/09/26 05:34:23;;;;;;;2.03;0.30;;;;;;;;;;5101934;28;20051;-74
2023/09/26 05:36:53;;;;;;;1.17;0.38;;;;;;;;;;5102151;28;20044;-74
2023/09/26 05:39:24;;;;;;;1.15;0.40;;;;;;;;;;5084346;28;20044;-74
2023/09/26 05:41:55;;;;;;;2.75;0.30;;;;;;;;;;5101934;28;20052;-74
2023/09/26 05:44:26;;;;;;;1.23;0.45;;;;;;;;;;5101417;28;20051;-74
2023/09/26 05:46:55;;;;;;;2.40;0.43;;;;;;;;;;5101673;28;20044;-74
2023/09/26 05:49:26;;;;;;;2.67;0.45;;;;;;;;;;5101974;28;20055;-74
2023/09/26 05:51:56;;;;;;;2.28;0.40;;;;;;;;;;5101915;28;20078;-75
2023/09/26 05:54:31;;;;;;;0.20;0.20;;;;;;;;;;5101696;28;20043;-74
2023/09/26 05:57:03;;;;;;;4.38;0.52;;;;;;;;;;5104032;28;20047;-73
2023/09/26 05:59:33;;;;;;;1.17;0.28;;;;;;;;;;5086756;28;20051;-75
2023/09/26 06:02:03;;;;;;;3.03;0.50;;;;;;;;;;5105300;28;20043;-74
2023/09/26 06:04:34;;;;;;;1.52;0.50;;;;;;;;;;5105424;28;20043;-73
2023/09/26 06:07:05;;;;;;;2.30;0.40;;;;;;;;;;5103550;28;20083;-73
2023/09/26 06:09:36;;;;;;;2.42;0.25;;;;;;;;;;5085792;28;20051;-74
2023/09/26 06:12:17;;;;;;;3.55;0.50;;;;;;;;;;5105108;28;20043;-74
2023/09/26 06:14:47;;;;;;;2.83;0.50;;;;;;;;;;5105461;28;20054;-75
2023/09/26 06:17:18;;;;;;;0.82;0.40;;;;;;;;;;5104746;28;20503;-74
2023/09/26 06:19:48;;;;;;;0.30;0.30;;;;;;;;;;5086280;28;20051;-74
2023/09/26 06:22:39;;;;;;;1.48;0.45;;;;;;;;;;5105117;28;20047;-74
2023/09/26 06:26:06;;;;;;;1.70;0.40;;;;;;;;;;5104755;28;20059;-74
2023/09/26 06:35:43;;;;;;;4.15;0.40;;;;;;;;;;5103953;28;20043;-74
2023/09/26 06:38:30;;;;;;;0.90;0.43;;;;;;;;;;5103343;28;20047;-73
2023/09/26 06:41:23;;;;;;;6.40;0.63;;;;;;;;;;5104250;28;20053;-73
2023/09/26 06:44:15;;;;;;;0.75;0.40;;;;;;;;;;5118649;27;20064;-73
2023/09/26 06:47:24;;;;;;;4.78;0.52;;;;;;;;;;5110060;28;20422;-73
2023/09/26 06:53:21;;;;;;;2.63;1.00;;;;;;;;;;5104086;28;20039;-74
2023/09/26 06:55:51;;;;;;;2.13;0.38;;;;;;;;;;5104525;28;20043;-74
2023/09/26 06:58:20;;;;;;;2.38;0.50;;;;;;;;;;5085323;28;20078;-74
2023/09/26 07:00:52;;;;;;;1.40;0.52;;;;;;;;;;5103813;28;20051;-75
2023/09/26 07:03:23;;;;;;;1.58;0.30;;;;;;;;;;5103711;28;20051;-75
2023/09/26 07:05:52;;;;;;;0.90;0.38;;;;;;;;;;5103880;28;20043;-74
2023/09/26 07:08:23;;;;;;;1.27;0.38;;;;;;;;;;5103979;28;20837;-74
2023/09/26 07:10:53;;;;;;;0.40;0.40;;;;;;;;;;5104330;28;20052;-74
2023/09/26 07:13:24;;;;;;;1.73;0.40;;;;;;;;;;5085801;28;20054;-74
2023/09/26 07:16:16;;;;;;;4.18;0.52;;;;;;;;;;5103850;28;20055;-74
2023/09/26 07:18:46;;;;;;;1.60;0.50;;;;;;;;;;5103802;28;20051;-74
2023/09/26 07:21:16;;;;;;;0.85;0.30;;;;;;;;;;5104601;28;20851;-74
2023/09/26 07:23:47;;;;;;;2.28;0.30;;;;;;;;;;5103658;28;20048;-73
2023/09/26 07:26:20;;;;;;;3.95;0.35;;;;;;;;;;5103652;28;20043;-74
2023/09/26 07:28:53;;;;;;;1.23;0.22;;;;;;;;;;5103701;28;20063;-74
2023/09/26 07:31:23;;;;;;;1.27;0.30;;;;;;;;;;5103993;28;20426;-74
2023/09/26 07:33:54;;;;;;;0.77;0.40;;;;;;;;;;5104338;28;20528;-74
2023/09/26 07:36:24;;;;;;;0.30;0.15;;;;;;;;;;5103602;28;20054;-74
2023/09/26 07:38:54;;;;;;;1.55;0.30;;;;;;;;;;5103163;28;20432;-75
2023/09/26 07:41:24;;;;;;;3.15;0.40;;;;;;;;;;5102928;28;20082;-73
2023/09/26 07:43:55;;;;;;;2.83;0.30;;;;;;;;;;5103165;28;20388;-74
2023/09/26 07:46:25;;;;;;;1.55;0.32;;;;;;;;;;5102889;28;20044;-74
2023/09/26 07:48:56;;;;;;;3.47;0.40;;;;;;;;;;5103174;28;20051;-74
2023/09/26 07:51:26;;;;;;;0.50;0.13;;;;;;;;;;5102763;28;20406;-73
2023/09/26 07:53:56;;;;;;;1.10;0.30;;;;;;;;;;5103818;28;20040;-74
2023/09/26 07:56:28;;;;;;;0.50;0.30;;;;;;;;;;5102690;28;20521;-74
2023/09/26 07:58:59;;;;;;;2.15;0.60;;;;;;;;;;5102776;28;20858;-75
2023/09/26 08:01:31;;;;;;;2.83;0.52;;;;;;;;;;5085371;28;20051;-75
2023/09/26 08:04:02;;;;;;;2.17;0.73;;;;;;;;;;5102745;28;20039;-74
2023/09/26 08:06:34;;;;;;;0.82;0.50;;;;;;;;;;5085561;28;20051;-74
2023/09/26 08:09:05;;;;;;;2.30;0.40;;;;;;;;;;5103362;28;20655;-73
2023/09/26 08:11:37;;;;;;;5.22;0.45;;;;;;;;;;5102931;28;20047;-73
2023/09/26 08:14:07;;;;;;;1.88;0.77;;;;;;;;;;5082862;28;20074;-74
2023/09/26 08:16:39;;;;;;;1.95;0.65;;;;;;;;;;5084922;28;20052;-74
2023/09/26 08:19:10;;;;;;;1.25;0.30;;;;;;;;;;5101951;28;20531;-74
2023/09/26 08:21:40;;;;;;;0.98;0.30;;;;;;;;;;5102773;28;20051;-74
2023/09/26 08:24:11;;;;;;;3.67;0.50;;;;;;;;;;5101927;28;20066;-74
2023/09/26 08:26:41;;;;;;;3.15;0.32;;;;;;;;;;5101933;28;20047;-75
2023/09/26 08:29:11;;;;;;;1.20;0.38;;;;;;;;;;5102736;28;20051;-75
2023/09/26 08:31:42;;;;;;;0.40;0.17;;;;;;;;;;5102087;28;20078;-73
2023/09/26 08:34:12;;;;;;;1.08;0.20;;;;;;;;;;5102879;28;20050;-74
2023/09/26 08:36:44;;;;;;;0.20;0.20;;;;;;;;;;5103107;28;20036;-74
2023/09/26 08:39:16;;;;;;;5.78;0.40;;;;;;;;;;5084761;28;20051;-74
2023/09/26 08:41:46;;;;;;;0.38;0.20;;;;;;;;;;5102765;28;20055;-74
2023/09/26 08:44:19;;;;;;;0.50;0.20;;;;;;;;;;5102263;28;20051;-74
2023/09/26 08:46:53;;;;;;;3.33;0.50;;;;;;;;;;5102775;28;20048;-75
2023/09/26 08:49:24;;;;;;;0.85;0.30;;;;;;;;;;5102906;28;20414;-74
2023/09/26 08:51:54;;;;;;;1.63;0.30;;;;;;;;;;5102349;28;20062;-74
2023/09/26 08:54:24;;;;;;;0.03;0.03;;;;;;;;;;5102259;28;20052;-74
2023/09/26 08:56:56;;;;;;;2.00;0.13;;;;;;;;;;5102354;28;20043;-75
2023/09/26 08:59:31;;;;;;;0.10;0.10;;;;;;;;;;5102322;28;20553;-77
2023/09/26 09:02:03;;;;;;;0.40;0.10;;;;;;;;;;5102145;28;20494;-77
2023/09/26 09:04:33;;;;;;;0.17;0.17;;;;;;;;;;5102560;28;20051;-74
2023/09/26 09:07:05;;;;;;;1.25;0.30;;;;;;;;;;5083499;28;20744;-74
2023/09/26 09:09:37;;;;;;;0.82;0.60;;;;;;;;;;5101284;28;20047;-75
2023/09/26 09:12:24;;;;;;;0.35;0.20;;;;;;;;;;5102527;28;20051;-76
2023/09/26 09:14:55;;;;;;;2.72;0.30;;;;;;;;;;5103083;28;20054;-75
2023/09/26 09:17:25;;;;;;;1.02;0.38;;;;;;;;;;5102265;28;20047;-75
2023/09/26 09:19:56;;;;;;;1.23;0.32;;;;;;;;;;5102295;28;20043;-75
2023/09/26 09:22:26;;;;;;;0.88;0.40;;;;;;;;;;5083413;28;20414;-74
2023/09/26 09:24:58;;;;;;;1.13;0.35;;;;;;;;;;5102406;28;20114;-75
2023/09/26 09:27:42;;;;;;;1.20;0.35;;;;;;;;;;5101703;28;20055;-75
2023/09/26 09:30:19;;;;;;;1.10;0.43;;;;;;;;;;5103394;28;20039;-74
2023/09/26 09:32:51;;;;;;;0.65;0.40;;;;;;;;;;5105676;28;20052;-74
2023/09/26 09:35:22;;;;;;;0.20;0.20;;;;;;;;;;5106128;28;20048;-74
2023/09/26 09:37:53;;;;;;;0.10;0.10;;;;;;;;;;5105630;28;20518;-72
2023/09/26 09:40:24;;;;;;;0.38;0.30;;;;;;;;;;5105783;28;20517;-74
2023/09/26 09:42:55;;;;;;;0.25;0.20;;;;;;;;;;5106034;28;20056;-74
2023/09/26 09:45:29;;;;;;;0.22;0.22;;;;;;;;;;5105369;28;20066;-74
2023/09/26 09:48:03;;;;;;;0.82;0.40;;;;;;;;;;5105699;28;21138;-74
2023/09/26 09:50:38;;;;;;;0.63;0.60;;;;;;;;;;5105436;28;20530;-75
2023/09/26 09:53:12;;;;;;;3.00;0.30;;;;;;;;;;5120293;27;20052;-76
2023/09/26 09:55:46;;;;;;;0.28;0.28;;;;;;;;;;5105916;28;20048;-76
2023/09/26 09:58:23;;;;;;;3.45;0.32;;;;;;;;;;5105856;28;20074;-79
2023/09/26 10:00:56;;;;;;;2.45;0.30;;;;;;;;;;5105559;28;20047;-75
2023/09/26 10:03:28;;;;;;;0.52;0.32;;;;;;;;;;5106091;28;20043;-75
2023/09/26 10:05:59;;;;;;;2.15;0.32;;;;;;;;;;5104563;28;20059;-75
2023/09/26 10:08:31;;;;;;;2.95;0.40;;;;;;;;;;5104884;28;20043;-77
2023/09/26 10:11:04;;;;;;;4.65;0.60;;;;;;;;;;5105279;28;20051;-77
2023/09/26 10:13:37;;;;;;;8.40;0.90;;;;;;;;;;5105402;28;20036;-79
2023/09/26 10:16:16;;;;;;;11.27;2.25;;;;;;;;;;5105169;28;20805;-78
2023/09/26 10:18:49;;;;;;;6.65;0.82;;;;;;;;;;5105506;28;20498;-78
2023/09/26 10:21:26;;;;;;;1.33;0.50;;;;;;;;;;5086316;28;20632;-77
2023/09/26 10:24:05;;;;;;;1.65;0.40;;;;;;;;;;5105093;28;20079;-77
2023/09/26 10:26:44;;;;;;;2.35;0.50;;;;;;;;;;5104984;28;20048;-84
2023/09/26 10:29:22;;;;;;;2.25;0.80;;;;;;;;;;5104785;28;20051;-76
2023/09/26 10:32:07;;;;;;;1.85;0.70;;;;;;;;;;5105049;28;20571;-77
2023/09/26 10:34:38;;;;;;;1.85;0.40;;;;;;;;;;5105002;28;20518;-76
2023/09/26 10:37:29;;;;;;;0.55;0.20;;;;;;;;;;5104457;28;20048;-76
2023/09/26 10:40:00;;;;;;;0.40;0.20;;;;;;;;;;5104255;28;20055;-77
2023/09/26 10:42:30;;;;;;;0.57;0.30;;;;;;;;;;5104103;28;20040;-76
2023/09/26 10:45:20;;;;;;;3.78;0.90;;;;;;;;;;5085292;28;20533;-77
2023/09/26 10:47:50;;;;;;;1.00;0.22;;;;;;;;;;5104025;28;20051;-77
2023/09/26 10:50:42;;;;;;;0.20;0.10;;;;;;;;;;5104519;28;21084;-77
2023/09/26 10:53:12;;;;;;;8.80;0.65;;;;;;;;;;5104832;28;20043;-76
2023/09/26 10:55:43;;;;;;;0.38;0.10;;;;;;;;;;5104426;28;20047;-77
2023/09/26 10:58:20;;;;;;;5.68;0.30;;;;;;;;;;5104260;28;20051;-77
2023/09/26 11:01:11;;;;;;;0.20;0.20;;;;;;;;;;5104442;28;20051;-76
2023/09/26 11:03:42;;;;;;;0.32;0.30;;;;;;;;;;5104536;28;20498;-77
2023/09/26 11:06:13;;;;;;;0.15;0.15;;;;;;;;;;5104413;28;20040;-80
2023/09/26 11:08:44;;;;;;;0.20;0.20;;;;;;;;;;5104022;28;20051;-76
2023/09/26 11:11:18;;;;;;;0.10;0.10;;;;;;;;;;5084814;28;20043;-76
2023/09/26 11:13:50;;;;;;;0.57;0.28;;;;;;;;;;5103498;28;20044;-76
2023/09/26 11:16:20;;;;;;;0.40;0.17;;;;;;;;;;5103364;28;20043;-75
2023/09/26 11:18:56;;;;;;;1.48;0.30;;;;;;;;;;5103883;28;20232;-76
2023/09/26 11:21:29;;;;;;;1.85;0.20;;;;;;;;;;5118732;27;20048;-76
2023/09/26 11:24:00;;;;;;;3.67;0.50;;;;;;;;;;5103772;28;20466;-76
2023/09/26 11:26:30;;;;;;;1.63;0.25;;;;;;;;;;5102678;28;20058;-81
2023/09/26 11:29:01;;;;;;;0.28;0.15;;;;;;;;;;5103250;28;20644;-76
2023/09/26 11:31:31;;;;;;;0.50;0.30;;;;;;;;;;5103278;28;20050;-76
2023/09/26 11:34:03;;;;;;;0.60;0.32;;;;;;;;;;5103742;28;20047;-77
2023/09/26 11:36:33;;;;;;;0.52;0.40;;;;;;;;;;5102979;28;20048;-77
2023/09/26 11:39:06;;;;;;;2.10;0.28;;;;;;;;;;5104060;28;20624;-77
2023/09/26 11:41:38;;;;;;;0.40;0.40;;;;;;;;;;5103353;28;20044;-77
2023/09/26 11:44:19;;;;;;;0.20;0.20;;;;;;;;;;5083935;28;20059;-76
2023/09/26 11:46:50;;;;;;;1.35;0.30;;;;;;;;;;5103234;28;20039;-76
2023/09/26 11:49:23;;;;;;;0.40;0.13;;;;;;;;;;5103165;28;20539;-76
2023/09/26 11:51:54;;;;;;;2.15;0.40;;;;;;;;;;5103268;28;20058;-76
2023/09/26 11:54:26;;;;;;;0.45;0.28;;;;;;;;;;5101965;28;20052;-76
2023/09/26 11:56:56;;;;;;;0.10;0.10;;;;;;;;;;5103997;28;20164;-76
2023/09/26 11:59:26;;;;;;;1.13;0.20;;;;;;;;;;5102778;28;20505;-76
2023/09/26 12:01:59;;;;;;;8.43;0.57;;;;;;;;;;5103349;28;20036;-76
2023/09/26 12:04:35;;;;;;;3.22;0.30;;;;;;;;;;5102778;28;20039;-76
2023/09/26 12:07:05;;;;;;;;;;;;;;;;;;5118729;27;20102;-76
2023/09/26 12:09:35;;;;;;;1.27;0.22;;;;;;;;;;5102841;28;19924;-80
2023/09/26 12:12:06;;;;;;;7.80;0.57;;;;;;;;;;5102946;28;20040;-77
2023/09/26 12:14:38;;;;;;;0.52;0.13;;;;;;;;;;5102622;28;20046;-77
2023/09/26 12:17:09;;;;;;;3.83;0.30;;;;;;;;;;5102857;28;20058;-76
2023/09/26 12:19:40;;;;;;;0.28;0.13;;;;;;;;;;5102687;28;20758;-77
2023/09/26 12:22:11;;;;;;;0.32;0.13;;;;;;;;;;5103203;28;20051;-76
2023/09/26 12:24:42;;;;;;;6.32;0.50;;;;;;;;;;5102807;28;20103;-75
2023/09/26 12:27:12;;;;;;;1.70;0.40;;;;;;;;;;5103145;28;20063;-76
2023/09/26 12:29:42;;;;;;;1.23;0.45;;;;;;;;;;5102234;28;20047;-78
2023/09/26 12:32:14;;;;;;;7.78;0.65;;;;;;;;;;5102750;28;20054;-77
2023/09/26 12:34:45;;;;;;;3.47;0.40;;;;;;;;;;5102329;28;20048;-79
2023/09/26 12:37:15;;;;;;;3.03;0.50;;;;;;;;;;5118310;27;20047;-78
2023/09/26 12:39:45;;;;;;;1.27;0.30;;;;;;;;;;5102899;28;20537;-76
2023/09/26 12:42:16;;;;;;;0.47;0.20;;;;;;;;;;5083962;28;20469;-76
2023/09/26 12:44:47;;;;;;;0.22;0.20;;;;;;;;;;5102316;28;20062;-76
2023/09/26 12:47:17;;;;;;;0.25;0.25;;;;;;;;;;5102031;28;20070;-75
2023/09/26 12:49:48;;;;;;;1.65;0.30;;;;;;;;;;5103022;28;20066;-75
2023/09/26 12:52:19;;;;;;;1.30;0.52;;;;;;;;;;5103521;28;20770;-76
2023/09/26 12:54:50;;;;;;;1.95;1.02;;;;;;;;;;5083568;28;20526;-76
2023/09/26 12:57:20;;;;;;;2.00;0.90;;;;;;;;;;5103167;28;20070;-76
2023/09/26 12:59:51;;;;;;;0.47;0.22;;;;;;;;;;5102878;28;20060;-76
2023/09/26 13:02:23;;;;;;;0.73;0.28;;;;;;;;;;5084206;28;20845;-76
2023/09/26 13:04:55;;;;;;;1.08;0.40;;;;;;;;;;5102645;28;20039;-76
2023/09/26 13:07:26;;;;;;;4.60;0.47;;;;;;;;;;5106138;28;20051;-76
2023/09/26 13:09:56;;;;;;;1.88;0.50;;;;;;;;;;5106079;28;20052;-74
2023/09/26 13:12:26;;;;;;;1.73;0.63;;;;;;;;;;5106275;28;20528;-74
2023/09/26 13:14:56;;;;;;;0.65;0.50;;;;;;;;;;5106482;28;20043;-74
2023/09/26 13:17:27;;;;;;;7.90;0.80;;;;;;;;;;5105789;28;20051;-73
2023/09/26 13:19:58;;;;;;;2.80;0.60;;;;;;;;;;5105790;28;20047;-77
2023/09/26 13:22:31;;;;;;;0.77;0.32;;;;;;;;;;5086573;28;20533;-76
2023/09/26 13:25:02;;;;;;;0.35;0.35;;;;;;;;;;5106383;28;20082;-77
2023/09/26 13:27:31;;;;;;;0.88;0.22;;;;;;;;;;5106895;28;20075;-76
2023/09/26 13:32:42;;;;;;;0.30;0.22;;;;;;;;;;5059606;28;20424;-73
2023/09/26 13:35:13;;;;;;;1.65;0.40;;;;;;;;;;5059658;28;20049;-74
2023/09/26 13:37:44;;;;;;;13.52;0.60;;;;;;;;;;5060324;28;20503;-78
2023/09/26 13:40:14;;;;;;;2.13;0.22;;;;;;;;;;5059659;28;20423;-79
2023/09/26 13:42:45;;;;;;;3.45;0.50;;;;;;;;;;5059200;28;20045;-78
2023/09/26 13:45:16;;;;;;;3.60;0.45;;;;;;;;;;5059333;28;20079;-77
2023/09/26 13:47:47;;;;;;;16.00;3.33;;;;;;;;;;5058222;28;20496;-77
2023/09/26 13:50:17;;;;;;;5.90;0.40;;;;;;;;;;5059050;28;20427;-77
2023/09/26 13:52:47;;;;;;;0.50;0.40;;;;;;;;;;5059266;28;20369;-76
2023/09/26 13:55:18;;;;;;;0.30;0.17;;;;;;;;;;5059387;28;20040;-75
2023/09/26 13:57:51;;;;;;;0.82;0.30;;;;;;;;;;5058998;28;20052;-76
2023/09/26 14:00:21;;;;;;;3.22;0.57;;;;;;;;;;5057414;28;20048;-76
2023/09/26 14:02:53;;;;;;;1.40;0.25;;;;;;;;;;5059119;28;20037;-75
2023/09/26 14:05:24;;;;;;;0.13;0.13;;;;;;;;;;5058728;28;20053;-76
2023/09/26 14:07:55;;;;;;;0.10;0.08;;;;;;;;;;5058614;28;20055;-75
2023/09/26 14:10:25;;;;;;;1.10;0.40;;;;;;;;;;5059266;28;20051;-74
2023/09/26 14:12:55;;;;;;;0.63;0.20;;;;;;;;;;5058706;28;20047;-75
2023/09/26 14:15:26;;;;;;;0.93;0.30;;;;;;;;;;5058592;28;20045;-75
2023/09/26 14:17:56;;;;;;;0.95;0.10;;;;;;;;;;5058624;28;20044;-74
2023/09/26 14:20:26;;;;;;;1.40;0.30;;;;;;;;;;5056426;28;20068;-74
2023/09/26 14:22:57;;;;;;;3.55;0.55;;;;;;;;;;5058526;28;20051;-75
2023/09/26 14:25:28;;;;;;;0.68;0.40;;;;;;;;;;5058467;28;20056;-74
2023/09/26 14:28:00;;;;;;;1.65;0.50;;;;;;;;;;5057999;28;20422;-75
2023/09/26 14:30:30;;;;;;;0.40;0.30;;;;;;;;;;5058167;28;20057;-74
2023/09/26 14:33:00;;;;;;;0.47;0.20;;;;;;;;;;5056780;28;20072;-74
2023/09/26 14:35:31;;;;;;;0.95;0.45;;;;;;;;;;5057844;28;20056;-73
2023/09/26 14:38:02;;;;;;;1.27;0.30;;;;;;;;;;5057554;28;20052;-74
2023/09/26 14:40:33;;;;;;;0.65;0.40;;;;;;;;;;5057758;28;20045;-74
2023/09/26 14:43:03;;;;;;;0.30;0.30;;;;;;;;;;5049739;28;20435;-74
2023/09/26 14:45:34;;;;;;;0.20;0.13;;;;;;;;;;5045125;28;20040;-74
2023/09/26 14:48:20;;;;;;;4.57;0.50;;;;;;;;;;5045372;28;20512;-77
2023/09/26 14:50:57;;;;;;;1.73;0.50;;;;;;;;;;5045013;28;20523;-77
2023/09/26 14:53:27;;;;;;;0.52;0.50;;;;;;;;;;5044842;28;20056;-74
2023/09/26 14:55:57;;;;;;;0.65;0.65;;;;;;;;;;5044634;28;20393;-73
2023/09/26 14:58:27;;;;;;;0.47;0.30;;;;;;;;;;5043657;28;20504;-75
2023/09/26 15:00:58;;;;;;;1.23;0.57;;;;;;;;;;5044407;28;20053;-74
2023/09/26 15:03:32;;;;;;;2.40;0.30;;;;;;;;;;5044551;28;20530;-77
2023/09/26 15:06:06;;;;;;;0.50;0.30;;;;;;;;;;5044805;28;20049;-74
2023/09/26 15:08:36;;;;;;;0.60;0.30;;;;;;;;;;5044230;28;20052;-75
2023/09/26 15:11:07;;;;;;;0.80;0.30;;;;;;;;;;5044519;28;20102;-75
2023/09/26 15:13:39;;;;;;;0.05;0.05;;;;;;;;;;5044206;28;20057;-74
2023/09/26 15:16:09;;;;;;;0.20;0.20;;;;;;;;;;5044445;28;20103;-75
2023/09/26 15:18:39;;;;;;;0.52;0.20;;;;;;;;;;5044801;28;20051;-75
2023/09/26 15:21:09;;;;;;;0.10;0.10;;;;;;;;;;5044624;28;20045;-75
2023/09/26 15:23:41;;;;;;;0.20;0.20;;;;;;;;;;5042931;28;20052;-75
2023/09/26 15:26:15;;;;;;;0.30;0.10;;;;;;;;;;5043950;28;20060;-76